sensor_id;sensor_type;location;lat;lon;timestamp;pressure;altitude;pressure_sealevel;temperature;humidity
3968;BME280;9221;42.646;23.380;2022-11-15T00:00:32;95169.47;;;4.94;99.53
3968;BME280;9221;42.646;23.380;2022-11-15T00:02:57;95170.13;;;5.11;99.88
3968;BME280;9221;42.646;23.380;2022-11-15T00:05:23;95184.78;;;5.26;99.15
3968;BME280;9221;42.646;23.380;2022-11-15T00:07:49;95197.66;;;5.29;99.33
3968;BME280;9221;42.646;23.380;2022-11-15T00:10:14;95194.41;;;5.13;98.75
3968;BME280;9221;42.646;23.380;2022-11-15T00:12:40;95175.47;;;5.22;99.18
3968;BME280;9221;42.646;23.380;2022-11-15T00:15:05;95185.03;;;5.36;98.83
3968;BME280;9221;42.646;23.380;2022-11-15T00:17:31;95169.72;;;5.42;98.34
3968;BME280;9221;42.646;23.380;2022-11-15T00:19:56;95118.47;;;5.14;97.12
3968;BME280;9221;42.646;23.380;2022-11-15T00:22:22;95213.28;;;5.56;96.55
3968;BME280;9221;42.646;23.380;2022-11-15T00:24:47;95187.94;;;5.44;96.11
3968;BME280;9221;42.646;23.380;2022-11-15T00:27:13;95184.78;;;5.52;95.71
3968;BME280;9221;42.646;23.380;2022-11-15T00:29:38;95174.13;;;5.55;95.51
3968;BME280;9221;42.646;23.380;2022-11-15T00:32:11;95205.31;;;5.84;95.30
3968;BME280;9221;42.646;23.380;2022-11-15T00:34:37;95176.00;;;6.04;94.16
3968;BME280;9221;42.646;23.380;2022-11-15T00:37:02;95178.69;;;6.16;93.15
3968;BME280;9221;42.646;23.380;2022-11-15T00:39:28;95084.16;;;5.45;92.29
3968;BME280;9221;42.646;23.380;2022-11-15T00:41:53;95089.41;;;5.32;92.37
3968;BME280;9221;42.646;23.380;2022-11-15T00:44:18;95167.00;;;5.57;92.78
3968;BME280;9221;42.646;23.380;2022-11-15T00:46:44;95235.94;;;5.30;94.14
3968;BME280;9221;42.646;23.380;2022-11-15T00:49:09;95199.00;;;5.22;95.26
3968;BME280;9221;42.646;23.380;2022-11-15T00:51:35;95211.56;;;5.17;97.03
3968;BME280;9221;42.646;23.380;2022-11-15T00:54:01;95126.22;;;5.16;96.34
3968;BME280;9221;42.646;23.380;2022-11-15T00:56:26;95196.69;;;5.30;95.58
3968;BME280;9221;42.646;23.380;2022-11-15T00:58:52;95212.41;;;5.56;95.43
3968;BME280;9221;42.646;23.380;2022-11-15T01:01:18;95200.94;;;5.46;93.95
3968;BME280;9221;42.646;23.380;2022-11-15T01:03:43;95159.06;;;5.46;93.95
3968;BME280;9221;42.646;23.380;2022-11-15T01:06:09;95102.78;;;5.27;93.52
3968;BME280;9221;42.646;23.380;2022-11-15T01:08:34;95168.25;;;5.38;92.75
3968;BME280;9221;42.646;23.380;2022-11-15T01:11:05;95173.09;;;5.32;92.90
3968;BME280;9221;42.646;23.380;2022-11-15T01:13:32;95182.50;;;5.47;92.43
3968;BME280;9221;42.646;23.380;2022-11-15T01:15:59;95200.50;;;5.65;92.52
3968;BME280;9221;42.646;23.380;2022-11-15T01:18:24;95163.84;;;5.78;91.93
3968;BME280;9221;42.646;23.380;2022-11-15T01:20:50;95121.59;;;5.06;91.55
3968;BME280;9221;42.646;23.380;2022-11-15T01:23:15;95109.91;;;4.99;92.15
3968;BME280;9221;42.646;23.380;2022-11-15T01:25:40;95083.34;;;5.05;91.84
3968;BME280;9221;42.646;23.380;2022-11-15T01:28:06;95151.31;;;5.57;91.73
3968;BME280;9221;42.646;23.380;2022-11-15T01:30:31;95143.78;;;5.65;90.86
3968;BME280;9221;42.646;23.380;2022-11-15T01:32:57;95098.91;;;5.33;90.53
3968;BME280;9221;42.646;23.380;2022-11-15T01:35:22;95145.97;;;5.71;90.43
3968;BME280;9221;42.646;23.380;2022-11-15T01:37:48;95140.63;;;5.60;89.83
3968;BME280;9221;42.646;23.380;2022-11-15T01:40:14;95144.63;;;5.14;90.21
3968;BME280;9221;42.646;23.380;2022-11-15T01:42:39;95156.53;;;5.05;92.67
3968;BME280;9221;42.646;23.380;2022-11-15T01:45:05;95154.94;;;4.90;94.99
3968;BME280;9221;42.646;23.380;2022-11-15T01:47:36;95207.31;;;5.01;96.58
3968;BME280;9221;42.646;23.380;2022-11-15T01:50:06;95201.94;;;5.17;96.00
3968;BME280;9221;42.646;23.380;2022-11-15T01:52:34;95147.97;;;5.29;95.30
3968;BME280;9221;42.646;23.380;2022-11-15T01:57:28;95089.19;;;5.22;93.39
3968;BME280;9221;42.646;23.380;2022-11-15T01:59:55;95061.16;;;4.72;92.13
3968;BME280;9221;42.646;23.380;2022-11-15T02:02:22;95119.81;;;4.94;92.88
3968;BME280;9221;42.646;23.380;2022-11-15T02:04:47;95119.75;;;5.08;93.23
3968;BME280;9221;42.646;23.380;2022-11-15T02:07:17;95080.75;;;4.52;92.42
3968;BME280;9221;42.646;23.380;2022-11-15T02:09:44;95125.53;;;4.73;93.00
3968;BME280;9221;42.646;23.380;2022-11-15T02:12:15;95082.66;;;4.63;94.32
3968;BME280;9221;42.646;23.380;2022-11-15T02:14:45;95100.88;;;4.78;94.02
3968;BME280;9221;42.646;23.380;2022-11-15T02:34:23;95176.63;;;5.18;91.21
3968;BME280;9221;42.646;23.380;2022-11-15T02:37:03;95143.78;;;5.01;91.76
3968;BME280;9221;42.646;23.380;2022-11-15T02:42:23;95076.69;;;4.21;92.48
3968;BME280;9221;42.646;23.380;2022-11-15T02:45:12;95181.06;;;4.50;92.84
3968;BME280;9221;42.646;23.380;2022-11-15T02:47:44;95129.22;;;4.44;93.46
3968;BME280;9221;42.646;23.380;2022-11-15T02:50:12;95114.56;;;4.28;93.80
3968;BME280;9221;42.646;23.380;2022-11-15T02:52:38;95119.44;;;4.05;94.61
3968;BME280;9221;42.646;23.380;2022-11-15T02:55:04;95064.41;;;4.23;93.51
3968;BME280;9221;42.646;23.380;2022-11-15T03:00:20;95076.28;;;4.14;92.75
3968;BME280;9221;42.646;23.380;2022-11-15T03:05:29;95137.84;;;4.71;92.56
3968;BME280;9221;42.646;23.380;2022-11-15T03:11:11;95118.75;;;4.44;94.98
3968;BME280;9221;42.646;23.380;2022-11-15T03:21:51;95047.38;;;3.90;96.58
3968;BME280;9221;42.646;23.380;2022-11-15T03:24:20;95014.28;;;3.63;96.62
3968;BME280;9221;42.646;23.380;2022-11-15T03:26:47;95069.16;;;4.03;96.57
3968;BME280;9221;42.646;23.380;2022-11-15T03:29:16;95113.31;;;4.06;96.61
3968;BME280;9221;42.646;23.380;2022-11-15T03:31:46;95163.50;;;4.52;96.66
3968;BME280;9221;42.646;23.380;2022-11-15T03:36:57;95111.81;;;4.57;97.18
3968;BME280;9221;42.646;23.380;2022-11-15T03:39:23;95160.09;;;4.64;97.03
3968;BME280;9221;42.646;23.380;2022-11-15T03:47:03;95055.94;;;4.72;94.87
3968;BME280;9221;42.646;23.380;2022-11-15T03:49:36;95103.00;;;4.98;93.63
3968;BME280;9221;42.646;23.380;2022-11-15T03:52:03;94984.56;;;3.93;94.94
3968;BME280;9221;42.646;23.380;2022-11-15T03:54:30;95142.47;;;4.68;95.44
3968;BME280;9221;42.646;23.380;2022-11-15T03:56:55;95058.03;;;4.14;95.89
3968;BME280;9221;42.646;23.380;2022-11-15T03:59:21;95076.44;;;4.38;96.03
3968;BME280;9221;42.646;23.380;2022-11-15T04:01:46;95022.97;;;3.91;94.78
3968;BME280;9221;42.646;23.380;2022-11-15T04:04:11;95049.06;;;3.91;93.97
3968;BME280;9221;42.646;23.380;2022-11-15T04:06:37;95103.34;;;3.99;93.55
3968;BME280;9221;42.646;23.380;2022-11-15T04:09:03;95138.41;;;3.95;93.70
3968;BME280;9221;42.646;23.380;2022-11-15T04:11:28;95022.94;;;3.36;92.55
3968;BME280;9221;42.646;23.380;2022-11-15T04:13:54;95038.41;;;3.11;92.65
3968;BME280;9221;42.646;23.380;2022-11-15T04:16:19;95144.50;;;3.66;92.85
3968;BME280;9221;42.646;23.380;2022-11-15T04:18:45;95048.25;;;2.91;93.86
3968;BME280;9221;42.646;23.380;2022-11-15T04:21:30;95028.09;;;2.35;96.95
3968;BME280;9221;42.646;23.380;2022-11-15T04:24:14;94999.13;;;2.11;99.15
3968;BME280;9221;42.646;23.380;2022-11-15T04:26:39;95127.09;;;2.79;100.00
3968;BME280;9221;42.646;23.380;2022-11-15T04:29:05;95093.97;;;2.52;100.00
3968;BME280;9221;42.646;23.380;2022-11-15T04:31:48;95097.19;;;2.86;100.00
3968;BME280;9221;42.646;23.380;2022-11-15T04:34:14;95090.50;;;2.82;100.00
3968;BME280;9221;42.646;23.380;2022-11-15T04:36:39;95170.81;;;2.74;100.00
3968;BME280;9221;42.646;23.380;2022-11-15T04:39:23;95115.00;;;2.63;100.00
3968;BME280;9221;42.646;23.380;2022-11-15T04:41:49;95110.13;;;2.87;100.00
3968;BME280;9221;42.646;23.380;2022-11-15T04:44:14;95085.50;;;3.08;100.00
3968;BME280;9221;42.646;23.380;2022-11-15T04:46:39;95106.22;;;3.24;100.00
3968;BME280;9221;42.646;23.380;2022-11-15T04:49:05;94990.50;;;2.84;100.00
3968;BME280;9221;42.646;23.380;2022-11-15T04:51:30;95134.44;;;3.60;100.00
3968;BME280;9221;42.646;23.380;2022-11-15T04:53:55;95069.84;;;3.36;100.00
3968;BME280;9221;42.646;23.380;2022-11-15T04:56:21;95095.88;;;3.65;100.00
3968;BME280;9221;42.646;23.380;2022-11-15T04:58:49;95076.31;;;3.58;100.00
3968;BME280;9221;42.646;23.380;2022-11-15T05:01:14;95015.25;;;3.48;100.00
3968;BME280;9221;42.646;23.380;2022-11-15T05:03:41;95082.38;;;4.00;100.00
3968;BME280;9221;42.646;23.380;2022-11-15T05:06:25;95086.47;;;4.04;100.00
3968;BME280;9221;42.646;23.380;2022-11-15T05:08:51;95106.72;;;4.28;100.00
3968;BME280;9221;42.646;23.380;2022-11-15T05:11:16;95078.09;;;3.99;100.00
3968;BME280;9221;42.646;23.380;2022-11-15T05:13:42;95100.69;;;4.40;100.00
3968;BME280;9221;42.646;23.380;2022-11-15T05:16:08;95086.16;;;4.36;99.75
3968;BME280;9221;42.646;23.380;2022-11-15T05:18:33;95134.06;;;4.50;99.43
3968;BME280;9221;42.646;23.380;2022-11-15T05:21:12;95140.78;;;4.67;99.04
3968;BME280;9221;42.646;23.380;2022-11-15T05:23:38;95097.16;;;4.42;98.97
3968;BME280;9221;42.646;23.380;2022-11-15T05:26:07;95097.13;;;4.69;98.98
3968;BME280;9221;42.646;23.380;2022-11-15T05:28:33;95028.41;;;4.28;98.33
3968;BME280;9221;42.646;23.380;2022-11-15T05:31:07;95044.50;;;4.48;98.21
3968;BME280;9221;42.646;23.380;2022-11-15T05:33:33;95073.69;;;4.67;98.16
3968;BME280;9221;42.646;23.380;2022-11-15T05:36:04;95078.78;;;4.56;98.17
3968;BME280;9221;42.646;23.380;2022-11-15T05:38:31;95086.84;;;4.53;98.69
3968;BME280;9221;42.646;23.380;2022-11-15T05:40:56;95035.06;;;3.92;99.38
3968;BME280;9221;42.646;23.380;2022-11-15T05:43:23;95026.94;;;3.69;100.00
3968;BME280;9221;42.646;23.380;2022-11-15T05:45:49;95042.41;;;3.72;100.00
3968;BME280;9221;42.646;23.380;2022-11-15T05:48:15;95097.78;;;4.18;100.00
3968;BME280;9221;42.646;23.380;2022-11-15T05:50:42;95136.38;;;4.13;100.00
3968;BME280;9221;42.646;23.380;2022-11-15T05:53:10;95123.59;;;3.95;100.00
3968;BME280;9221;42.646;23.380;2022-11-15T05:55:38;95074.59;;;3.86;100.00
3968;BME280;9221;42.646;23.380;2022-11-15T05:58:04;95083.25;;;4.14;100.00
3968;BME280;9221;42.646;23.380;2022-11-15T06:00:30;95117.53;;;4.22;100.00
3968;BME280;9221;42.646;23.380;2022-11-15T06:02:55;95114.81;;;4.51;100.00
3968;BME280;9221;42.646;23.380;2022-11-15T06:05:21;95081.28;;;4.57;100.00
3968;BME280;9221;42.646;23.380;2022-11-15T06:07:46;95132.81;;;4.55;100.00
3968;BME280;9221;42.646;23.380;2022-11-15T06:10:12;95093.31;;;4.60;100.00
3968;BME280;9221;42.646;23.380;2022-11-15T06:12:37;95033.75;;;4.39;100.00
3968;BME280;9221;42.646;23.380;2022-11-15T06:15:03;95152.25;;;4.64;99.35
3968;BME280;9221;42.646;23.380;2022-11-15T06:17:28;95093.09;;;4.63;99.16
3968;BME280;9221;42.646;23.380;2022-11-15T06:19:54;95106.97;;;4.91;98.97
3968;BME280;9221;42.646;23.380;2022-11-15T06:22:19;95070.13;;;4.68;98.44
3968;BME280;9221;42.646;23.380;2022-11-15T06:24:45;95094.06;;;4.62;98.32
3968;BME280;9221;42.646;23.380;2022-11-15T06:27:11;95154.53;;;4.96;98.40
3968;BME280;9221;42.646;23.380;2022-11-15T06:29:36;95111.78;;;5.23;97.95
3968;BME280;9221;42.646;23.380;2022-11-15T06:32:02;95144.94;;;5.35;97.30
3968;BME280;9221;42.646;23.380;2022-11-15T06:34:27;95074.78;;;5.03;96.17
3968;BME280;9221;42.646;23.380;2022-11-15T06:36:53;95049.69;;;5.01;95.98
3968;BME280;9221;42.646;23.380;2022-11-15T06:39:18;95058.03;;;5.19;95.31
3968;BME280;9221;42.646;23.380;2022-11-15T06:41:43;95091.06;;;5.46;94.84
3968;BME280;9221;42.646;23.380;2022-11-15T06:44:09;95037.56;;;5.13;95.02
3968;BME280;9221;42.646;23.380;2022-11-15T06:46:34;95097.75;;;5.50;94.75
3968;BME280;9221;42.646;23.380;2022-11-15T06:49:00;95102.13;;;5.49;94.97
3968;BME280;9221;42.646;23.380;2022-11-15T06:51:25;95107.56;;;5.59;94.55
3968;BME280;9221;42.646;23.380;2022-11-15T06:53:51;95104.22;;;5.57;94.98
3968;BME280;9221;42.646;23.380;2022-11-15T06:56:16;95128.06;;;4.88;96.64
3968;BME280;9221;42.646;23.380;2022-11-15T06:58:41;95109.53;;;4.78;98.90
3968;BME280;9221;42.646;23.380;2022-11-15T07:01:09;95051.44;;;4.74;99.22
3968;BME280;9221;42.646;23.380;2022-11-15T07:03:36;95118.91;;;5.21;99.13
3968;BME280;9221;42.646;23.380;2022-11-15T07:06:02;95113.63;;;5.47;97.99
3968;BME280;9221;42.646;23.380;2022-11-15T07:08:28;95080.19;;;5.39;97.01
3968;BME280;9221;42.646;23.380;2022-11-15T07:10:54;95114.31;;;5.12;96.39
3968;BME280;9221;42.646;23.380;2022-11-15T07:13:26;95087.50;;;5.47;96.81
3968;BME280;9221;42.646;23.380;2022-11-15T07:15:52;95115.63;;;5.56;96.68
3968;BME280;9221;42.646;23.380;2022-11-15T07:18:17;95018.91;;;5.30;96.13
3968;BME280;9221;42.646;23.380;2022-11-15T07:20:42;95115.94;;;5.77;95.35
3968;BME280;9221;42.646;23.380;2022-11-15T07:23:08;95009.25;;;5.43;94.66
3968;BME280;9221;42.646;23.380;2022-11-15T07:25:33;95139.47;;;6.03;94.68
3968;BME280;9221;42.646;23.380;2022-11-15T07:28:00;95059.50;;;5.36;93.43
3968;BME280;9221;42.646;23.380;2022-11-15T07:30:26;95140.44;;;5.12;95.44
3968;BME280;9221;42.646;23.380;2022-11-15T07:33:01;95032.97;;;4.65;96.99
3968;BME280;9221;42.646;23.380;2022-11-15T07:35:28;95011.41;;;4.74;96.94
3968;BME280;9221;42.646;23.380;2022-11-15T07:37:55;95086.66;;;5.46;96.91
3968;BME280;9221;42.646;23.380;2022-11-15T07:40:20;95089.47;;;5.56;95.70
3968;BME280;9221;42.646;23.380;2022-11-15T07:42:46;95090.56;;;5.15;95.96
3968;BME280;9221;42.646;23.380;2022-11-15T07:45:17;95099.22;;;5.02;97.23
3968;BME280;9221;42.646;23.380;2022-11-15T07:47:47;95076.63;;;4.75;97.50
3968;BME280;9221;42.646;23.380;2022-11-15T07:50:13;95084.78;;;5.09;97.70
3968;BME280;9221;42.646;23.380;2022-11-15T07:52:38;95079.56;;;5.09;97.38
3968;BME280;9221;42.646;23.380;2022-11-15T07:55:04;95057.19;;;5.05;97.69
3968;BME280;9221;42.646;23.380;2022-11-15T07:57:30;95117.00;;;5.49;96.99
3968;BME280;9221;42.646;23.380;2022-11-15T07:59:55;95100.75;;;5.69;96.36
3968;BME280;9221;42.646;23.380;2022-11-15T08:02:21;95054.16;;;5.74;95.87
3968;BME280;9221;42.646;23.380;2022-11-15T08:04:46;95023.19;;;5.68;94.82
3968;BME280;9221;42.646;23.380;2022-11-15T08:07:12;95054.28;;;5.97;93.96
3968;BME280;9221;42.646;23.380;2022-11-15T08:09:38;95081.28;;;6.10;93.54
3968;BME280;9221;42.646;23.380;2022-11-15T08:12:03;95103.03;;;6.24;93.22
3968;BME280;9221;42.646;23.380;2022-11-15T08:14:29;95073.69;;;6.32;92.99
3968;BME280;9221;42.646;23.380;2022-11-15T08:16:55;95008.91;;;5.85;92.52
3968;BME280;9221;42.646;23.380;2022-11-15T08:19:20;95002.81;;;5.85;93.08
3968;BME280;9221;42.646;23.380;2022-11-15T08:21:46;95076.69;;;6.38;92.67
3968;BME280;9221;42.646;23.380;2022-11-15T08:24:11;95108.03;;;6.51;92.02
3968;BME280;9221;42.646;23.380;2022-11-15T08:26:37;95109.50;;;6.55;91.61
3968;BME280;9221;42.646;23.380;2022-11-15T08:29:02;95074.38;;;6.58;91.26
3968;BME280;9221;42.646;23.380;2022-11-15T08:31:28;95132.25;;;6.55;90.93
3968;BME280;9221;42.646;23.380;2022-11-15T08:33:53;94990.81;;;6.06;90.97
3968;BME280;9221;42.646;23.380;2022-11-15T08:36:19;95014.34;;;6.19;90.43
3968;BME280;9221;42.646;23.380;2022-11-15T08:38:45;95068.38;;;6.56;91.21
3968;BME280;9221;42.646;23.380;2022-11-15T08:41:36;95002.91;;;6.20;90.76
3968;BME280;9221;42.646;23.380;2022-11-15T08:44:03;95020.78;;;5.28;92.52
3968;BME280;9221;42.646;23.380;2022-11-15T08:46:29;95062.00;;;5.24;95.97
3968;BME280;9221;42.646;23.380;2022-11-15T08:48:54;95025.97;;;4.91;97.75
3968;BME280;9221;42.646;23.380;2022-11-15T08:51:20;95062.84;;;5.25;98.16
3968;BME280;9221;42.646;23.380;2022-11-15T08:53:45;95096.00;;;5.12;98.24
3968;BME280;9221;42.646;23.380;2022-11-15T08:56:12;95008.28;;;4.82;98.70
3968;BME280;9221;42.646;23.380;2022-11-15T08:58:38;95004.09;;;4.92;98.14
3968;BME280;9221;42.646;23.380;2022-11-15T09:01:04;95048.31;;;5.21;98.10
3968;BME280;9221;42.646;23.380;2022-11-15T09:03:30;95025.56;;;5.34;98.22
3968;BME280;9221;42.646;23.380;2022-11-15T09:06:00;94984.81;;;5.32;97.66
3968;BME280;9221;42.646;23.380;2022-11-15T09:08:29;95045.44;;;5.50;97.44
3968;BME280;9221;42.646;23.380;2022-11-15T09:10:55;95125.38;;;5.28;97.66
3968;BME280;9221;42.646;23.380;2022-11-15T09:13:21;95043.13;;;5.58;98.69
3968;BME280;9221;42.646;23.380;2022-11-15T09:15:46;95036.22;;;5.57;97.32
3968;BME280;9221;42.646;23.380;2022-11-15T09:18:12;94966.41;;;5.33;97.26
3968;BME280;9221;42.646;23.380;2022-11-15T09:20:37;95015.69;;;6.01;97.45
3968;BME280;9221;42.646;23.380;2022-11-15T09:23:04;95016.69;;;6.47;96.53
3968;BME280;9221;42.646;23.380;2022-11-15T09:25:29;95009.63;;;6.83;94.66
3968;BME280;9221;42.646;23.380;2022-11-15T09:27:55;95010.47;;;7.06;92.55
3968;BME280;9221;42.646;23.380;2022-11-15T09:30:21;95020.75;;;7.32;91.62
3968;BME280;9221;42.646;23.380;2022-11-15T09:32:47;94996.75;;;7.36;89.87
3968;BME280;9221;42.646;23.380;2022-11-15T09:35:12;95003.91;;;7.57;88.81
3968;BME280;9221;42.646;23.380;2022-11-15T09:37:38;95007.78;;;7.85;88.75
3968;BME280;9221;42.646;23.380;2022-11-15T09:40:03;95031.28;;;7.87;87.30
3968;BME280;9221;42.646;23.380;2022-11-15T09:48:25;94986.88;;;7.95;88.09
3968;BME280;9221;42.646;23.380;2022-11-15T09:50:55;95026.72;;;8.00;86.77
3968;BME280;9221;42.646;23.380;2022-11-15T09:53:48;95010.22;;;8.09;86.25
3968;BME280;9221;42.646;23.380;2022-11-15T09:56:26;94980.00;;;8.36;86.36
3968;BME280;9221;42.646;23.380;2022-11-15T10:04:15;94998.13;;;9.24;81.42
3968;BME280;9221;42.646;23.380;2022-11-15T10:06:49;94958.75;;;9.43;81.01
3968;BME280;9221;42.646;23.380;2022-11-15T10:09:29;94891.31;;;9.11;80.03
3968;BME280;9221;42.646;23.380;2022-11-15T10:11:59;94890.25;;;9.24;79.18
3968;BME280;9221;42.646;23.380;2022-11-15T10:14:27;94886.81;;;9.33;78.73
3968;BME280;9221;42.646;23.380;2022-11-15T10:17:16;94983.66;;;9.90;78.61
3968;BME280;9221;42.646;23.380;2022-11-15T10:20:39;94945.25;;;9.87;77.92
3968;BME280;9221;42.646;23.380;2022-11-15T10:23:00;94906.13;;;9.53;77.83
3968;BME280;9221;42.646;23.380;2022-11-15T10:25:29;94886.59;;;9.56;77.39
3968;BME280;9221;42.646;23.380;2022-11-15T10:28:01;94899.19;;;9.52;77.64
3968;BME280;9221;42.646;23.380;2022-11-15T10:30:46;94924.72;;;9.71;77.92
3968;BME280;9221;42.646;23.380;2022-11-15T10:36:19;94925.72;;;9.90;77.40
3968;BME280;9221;42.646;23.380;2022-11-15T10:41:15;94850.69;;;9.35;78.89
3968;BME280;9221;42.646;23.380;2022-11-15T10:43:40;94934.81;;;9.66;79.99
3968;BME280;9221;42.646;23.380;2022-11-15T10:46:21;94825.53;;;9.11;79.79
3968;BME280;9221;42.646;23.380;2022-11-15T10:48:46;94907.78;;;9.54;79.91
3968;BME280;9221;42.646;23.380;2022-11-15T10:51:26;94929.34;;;9.38;80.92
3968;BME280;9221;42.646;23.380;2022-11-15T10:53:57;94927.00;;;9.35;81.21
3968;BME280;9221;42.646;23.380;2022-11-15T10:56:26;94897.19;;;9.25;80.74
3968;BME280;9221;42.646;23.380;2022-11-15T10:58:56;94919.44;;;9.11;81.79
3968;BME280;9221;42.646;23.380;2022-11-15T11:01:24;94827.22;;;8.41;83.05
3968;BME280;9221;42.646;23.380;2022-11-15T11:06:30;94838.84;;;8.38;85.39
3968;BME280;9221;42.646;23.380;2022-11-15T11:08:58;94865.47;;;8.86;84.82
3968;BME280;9221;42.646;23.380;2022-11-15T11:11:44;94866.63;;;8.62;83.66
3968;BME280;9221;42.646;23.380;2022-11-15T11:14:27;94868.94;;;9.27;83.30
3968;BME280;9221;42.646;23.380;2022-11-15T11:25:17;94845.13;;;9.38;82.44
3968;BME280;9221;42.646;23.380;2022-11-15T11:33:10;94770.00;;;8.95;82.27
3968;BME280;9221;42.646;23.380;2022-11-15T11:49:12;94818.97;;;9.46;82.16
3968;BME280;9221;42.646;23.380;2022-11-15T11:54:38;94813.25;;;9.41;82.12
3968;BME280;9221;42.646;23.380;2022-11-15T11:57:12;94790.16;;;9.35;82.59
3968;BME280;9221;42.646;23.380;2022-11-15T11:59:47;94813.25;;;9.41;82.52
3968;BME280;9221;42.646;23.380;2022-11-15T12:02:20;94784.16;;;9.53;82.20
3968;BME280;9221;42.646;23.380;2022-11-15T12:04:51;94727.38;;;9.11;82.24
3968;BME280;9221;42.646;23.380;2022-11-15T12:07:28;94712.34;;;8.53;82.34
3968;BME280;9221;42.646;23.380;2022-11-15T12:10:05;94761.47;;;9.52;81.75
3968;BME280;9221;42.646;23.380;2022-11-15T12:12:47;94767.97;;;9.47;82.19
3968;BME280;9221;42.646;23.380;2022-11-15T12:15:18;94755.06;;;9.44;82.41
3968;BME280;9221;42.646;23.380;2022-11-15T12:17:46;94674.22;;;9.07;81.87
3968;BME280;9221;42.646;23.380;2022-11-15T12:20:18;94752.84;;;9.49;82.25
3968;BME280;9221;42.646;23.380;2022-11-15T12:22:49;94760.34;;;9.64;81.76
3968;BME280;9221;42.646;23.380;2022-11-15T12:28:11;94684.44;;;9.30;81.24
3968;BME280;9221;42.646;23.380;2022-11-15T12:30:47;94739.81;;;9.77;81.30
3968;BME280;9221;42.646;23.380;2022-11-15T12:33:41;94674.47;;;9.43;80.93
3968;BME280;9221;42.646;23.380;2022-11-15T12:36:29;94721.75;;;9.82;80.74
3968;BME280;9221;42.646;23.380;2022-11-15T12:38:57;94763.63;;;9.95;80.47
3968;BME280;9221;42.646;23.380;2022-11-15T12:41:25;94666.13;;;9.58;80.54
3968;BME280;9221;42.646;23.380;2022-11-15T12:43:51;94720.63;;;10.05;80.20
3968;BME280;9221;42.646;23.380;2022-11-15T12:59:55;94707.56;;;10.03;80.58
3968;BME280;9221;42.646;23.380;2022-11-15T13:17:42;94696.13;;;10.22;79.98
3968;BME280;9221;42.646;23.380;2022-11-15T13:30:54;94630.53;;;9.91;79.62
3968;BME280;9221;42.646;23.380;2022-11-15T13:33:21;94675.28;;;10.29;79.79
3968;BME280;9221;42.646;23.380;2022-11-15T13:35:51;94610.59;;;9.89;79.66
3968;BME280;9221;42.646;23.380;2022-11-15T13:38:36;94673.91;;;10.35;79.42
3968;BME280;9221;42.646;23.380;2022-11-15T13:41:23;94693.88;;;10.37;79.40
3968;BME280;9221;42.646;23.380;2022-11-15T13:43:50;94669.34;;;10.27;79.31
3968;BME280;9221;42.646;23.380;2022-11-15T13:48:45;94611.09;;;10.02;78.96
3968;BME280;9221;42.646;23.380;2022-11-15T13:51:19;94698.72;;;10.42;78.94
3968;BME280;9221;42.646;23.380;2022-11-15T13:53:54;94672.94;;;10.36;78.76
3968;BME280;9221;42.646;23.380;2022-11-15T13:56:20;94681.91;;;10.43;78.94
3968;BME280;9221;42.646;23.380;2022-11-15T13:58:46;94719.09;;;10.40;79.08
3968;BME280;9221;42.646;23.380;2022-11-15T14:01:17;94673.56;;;10.47;78.90
3968;BME280;9221;42.646;23.380;2022-11-15T14:03:53;94671.09;;;10.46;78.86
3968;BME280;9221;42.646;23.380;2022-11-15T14:06:21;94617.34;;;10.19;78.88
3968;BME280;9221;42.646;23.380;2022-11-15T14:09:31;94667.31;;;10.48;78.73
3968;BME280;9221;42.646;23.380;2022-11-15T14:11:58;94656.69;;;10.40;78.73
3968;BME280;9221;42.646;23.380;2022-11-15T14:14:25;94586.97;;;9.97;78.58
3968;BME280;9221;42.646;23.380;2022-11-15T14:16:59;94655.84;;;10.40;78.82
3968;BME280;9221;42.646;23.380;2022-11-15T14:22:18;94632.25;;;10.10;79.15
3968;BME280;9221;42.646;23.380;2022-11-15T14:25:03;94700.47;;;10.13;79.75
3968;BME280;9221;42.646;23.380;2022-11-15T14:27:30;94630.50;;;10.01;80.04
3968;BME280;9221;42.646;23.380;2022-11-15T14:29:56;94690.44;;;10.27;79.56
3968;BME280;9221;42.646;23.380;2022-11-15T14:32:24;94626.38;;;9.89;79.64
3968;BME280;9221;42.646;23.380;2022-11-15T14:35:21;94656.59;;;10.22;79.67
3968;BME280;9221;42.646;23.380;2022-11-15T14:37:52;94597.97;;;9.82;79.82
3968;BME280;9221;42.646;23.380;2022-11-15T14:40:21;94667.53;;;10.27;80.14
3968;BME280;9221;42.646;23.380;2022-11-15T14:42:49;94692.53;;;10.23;80.00
3968;BME280;9221;42.646;23.380;2022-11-15T14:45:18;94650.41;;;10.13;80.14
3968;BME280;9221;42.646;23.380;2022-11-15T14:47:44;94661.03;;;10.22;80.31
3968;BME280;9221;42.646;23.380;2022-11-15T14:50:15;94668.94;;;10.22;80.33
3968;BME280;9221;42.646;23.380;2022-11-15T14:52:42;94649.03;;;10.09;80.26
3968;BME280;9221;42.646;23.380;2022-11-15T14:58:35;94659.56;;;10.09;80.53
3968;BME280;9221;42.646;23.380;2022-11-15T15:01:29;94656.78;;;10.11;80.60
3968;BME280;9221;42.646;23.380;2022-11-15T15:04:02;94636.06;;;9.98;80.68
3968;BME280;9221;42.646;23.380;2022-11-15T15:06:39;94643.44;;;9.85;80.89
3968;BME280;9221;42.646;23.380;2022-11-15T15:09:27;94653.81;;;9.96;80.89
3968;BME280;9221;42.646;23.380;2022-11-15T15:12:00;94648.03;;;9.82;81.42
3968;BME280;9221;42.646;23.380;2022-11-15T15:14:29;94655.25;;;9.80;81.48
3968;BME280;9221;42.646;23.380;2022-11-15T15:17:01;94649.38;;;9.87;81.52
3968;BME280;9221;42.646;23.380;2022-11-15T15:19:42;94652.91;;;9.68;81.96
3968;BME280;9221;42.646;23.380;2022-11-15T15:22:16;94583.63;;;9.20;82.47
3968;BME280;9221;42.646;23.380;2022-11-15T15:24:44;94655.59;;;9.58;82.72
3968;BME280;9221;42.646;23.380;2022-11-15T15:27:10;94656.72;;;9.45;82.50
3968;BME280;9221;42.646;23.380;2022-11-15T15:29:36;94637.38;;;8.97;83.16
3968;BME280;9221;42.646;23.380;2022-11-15T15:32:01;94599.16;;;8.44;84.55
3968;BME280;9221;42.646;23.380;2022-11-15T15:34:27;94602.47;;;8.27;85.68
3968;BME280;9221;42.646;23.380;2022-11-15T15:39:53;94668.09;;;8.77;86.61
3968;BME280;9221;42.646;23.380;2022-11-15T15:42:19;94637.94;;;8.81;85.74
3968;BME280;9221;42.646;23.380;2022-11-15T15:44:45;94614.13;;;8.54;85.59
3968;BME280;9221;42.646;23.380;2022-11-15T15:47:21;94647.22;;;8.66;85.80
3968;BME280;9221;42.646;23.380;2022-11-15T15:49:50;94652.59;;;8.55;87.16
3968;BME280;9221;42.646;23.380;2022-11-15T15:52:16;94650.28;;;8.21;88.92
3968;BME280;9221;42.646;23.380;2022-11-15T15:54:42;94625.03;;;7.89;90.23
3968;BME280;9221;42.646;23.380;2022-11-15T15:57:08;94590.03;;;7.48;90.90
3968;BME280;9221;42.646;23.380;2022-11-15T15:59:36;94602.56;;;7.65;91.81